Time;durP1;ratioP1;P1;durP2;ratioP2;P2;SDS_P1;SDS_P2;PMS_P1;PMS_P2;Temp;Humidity;BMP_temperature;BMP_pressure;BME280_temperature;BME280_humidity;BME280_pressure;Samples;Min_cycle;Max_cycle;Signal;HPM_P1;HPM_P2
2023/03/01 00:01:31;;;;;;;14.15;7.93;;;-1.40;99.90;;;;;;5048002;28;20108;-48
2023/03/01 00:03:58;;;;;;;13.85;7.30;;;-1.40;99.90;;;;;;5050556;28;20104;-48
2023/03/01 00:06:25;;;;;;;14.13;7.60;;;-1.40;99.90;;;;;;5051529;28;20398;-48
2023/03/01 00:08:51;;;;;;;13.32;6.72;;;-1.30;99.90;;;;;;5051698;28;20025;-50
2023/03/01 00:11:23;;;;;;;13.38;7.13;;;-1.40;99.90;;;;;;5051596;28;20486;-48
2023/03/01 00:13:51;;;;;;;11.73;7.15;;;-1.40;99.90;;;;;;5050788;28;20124;-48
2023/03/01 00:16:29;;;;;;;13.80;7.05;;;-1.50;99.90;;;;;;5051390;28;20120;-48
2023/03/01 00:18:55;;;;;;;13.70;7.60;;;-1.50;99.90;;;;;;5051569;28;20056;-50
2023/03/01 00:21:22;;;;;;;19.10;7.45;;;-1.50;99.90;;;;;;5051642;28;20040;-48
2023/03/01 00:23:48;;;;;;;12.52;7.90;;;-1.50;99.90;;;;;;5050206;28;20021;-50
2023/03/01 00:26:16;;;;;;;14.00;7.95;;;-1.50;99.90;;;;;;5051096;28;20107;-49
2023/03/01 00:28:42;;;;;;;13.43;7.18;;;-1.50;99.90;;;;;;5050548;28;20533;-48
2023/03/01 00:31:14;;;;;;;16.25;7.97;;;-1.60;99.90;;;;;;5050987;28;20033;-50
2023/03/01 00:33:40;;;;;;;16.40;7.75;;;-1.60;99.90;;;;;;5050713;28;20017;-49
2023/03/01 00:36:06;;;;;;;17.08;7.90;;;-1.60;99.90;;;;;;5049502;28;20131;-51
2023/03/01 00:38:38;;;;;;;12.77;7.03;;;-1.60;99.90;;;;;;5050190;28;20092;-48
2023/03/01 00:41:12;;;;;;;16.88;7.88;;;-1.60;99.90;;;;;;5049364;28;20025;-49
2023/03/01 00:43:38;;;;;;;16.65;8.02;;;-1.60;99.90;;;;;;5050552;28;20119;-49
2023/03/01 00:46:08;;;;;;;14.32;7.68;;;-1.60;99.90;;;;;;5050698;28;20163;-50
2023/03/01 00:48:35;;;;;;;19.75;8.73;;;-1.70;99.90;;;;;;5050444;28;20021;-48
2023/03/01 00:51:11;;;;;;;11.80;6.60;;;-1.70;99.90;;;;;;5050482;28;20032;-51
2023/03/01 00:53:38;;;;;;;17.17;7.95;;;-1.60;99.90;;;;;;5050028;28;20029;-49
2023/03/01 00:56:04;;;;;;;13.93;7.75;;;-1.70;99.90;;;;;;5049846;28;20104;-48
2023/03/01 00:58:30;;;;;;;13.57;7.85;;;-1.70;99.90;;;;;;5050599;28;20029;-49
2023/03/01 01:00:56;;;;;;;13.88;7.10;;;-1.70;99.90;;;;;;5050074;28;20036;-48
2023/03/01 01:03:23;;;;;;;18.23;7.70;;;-1.70;99.90;;;;;;5049779;28;20552;-48
2023/03/01 01:05:48;;;;;;;12.20;6.85;;;-1.70;99.90;;;;;;5051154;28;20029;-48
2023/03/01 01:08:14;;;;;;;13.57;7.30;;;-1.80;99.90;;;;;;5049788;28;20029;-48
2023/03/01 01:10:39;;;;;;;13.65;7.18;;;-1.80;99.90;;;;;;5050073;28;20387;-50
2023/03/01 01:13:05;;;;;;;13.30;7.43;;;-1.80;99.90;;;;;;5049741;28;20056;-51
2023/03/01 01:15:34;;;;;;;14.98;7.30;;;-1.90;99.90;;;;;;5048347;28;20057;-49
2023/03/01 01:18:00;;;;;;;14.80;7.93;;;-2.00;99.90;;;;;;5050203;28;20096;-51
2023/03/01 01:20:26;;;;;;;14.90;7.88;;;-2.00;99.90;;;;;;5050118;28;20104;-49
2023/03/01 01:22:52;;;;;;;14.57;7.85;;;-2.00;99.90;;;;;;5049347;28;20029;-47
2023/03/01 01:25:17;;;;;;;13.30;7.32;;;-2.00;99.90;;;;;;5049705;28;20033;-47
2023/03/01 01:27:43;;;;;;;13.75;7.85;;;-2.10;99.90;;;;;;5049407;28;20029;-48
2023/03/01 01:30:09;;;;;;;14.77;6.93;;;-2.10;99.90;;;;;;5049360;28;20025;-47
2023/03/01 01:32:34;;;;;;;14.95;8.35;;;-2.10;99.90;;;;;;5048146;28;20037;-48
2023/03/01 01:35:00;;;;;;;16.85;9.48;;;-2.10;99.90;;;;;;5048443;28;20094;-47
2023/03/01 01:37:30;;;;;;;12.10;6.75;;;-2.20;99.90;;;;;;5048406;28;20029;-47
2023/03/01 01:40:00;;;;;;;15.25;7.25;;;-2.20;99.90;;;;;;5050027;28;20383;-47
2023/03/01 01:42:27;;;;;;;8.90;4.68;;;-2.20;99.90;;;;;;5049415;28;20057;-48
2023/03/01 01:45:26;;;;;;;13.95;8.05;;;-2.20;99.90;;;;;;5048032;28;20449;-47
2023/03/01 01:47:55;;;;;;;15.93;7.28;;;-2.20;99.90;;;;;;5049313;28;20394;-47
2023/03/01 01:50:22;;;;;;;13.02;7.70;;;-2.30;99.90;;;;;;5049066;28;20059;-49
2023/03/01 01:52:50;;;;;;;13.88;8.98;;;-2.30;99.90;;;;;;5048004;28;20032;-49
2023/03/01 01:55:21;;;;;;;16.42;8.55;;;-2.30;99.90;;;;;;5048930;28;20032;-48
2023/03/01 01:57:51;;;;;;;15.40;7.53;;;-2.20;99.90;;;;;;5049348;28;20391;-48
2023/03/01 02:00:18;;;;;;;;;;;-2.30;99.90;;;;;;5049824;28;20051;-48
2023/03/01 02:02:46;;;;;;;11.57;7.22;;;-2.30;99.90;;;;;;5049289;28;19951;-49
2023/03/01 02:05:18;;;;;;;10.57;6.60;;;-2.30;99.90;;;;;;5048765;28;20478;-48
2023/03/01 02:07:45;;;;;;;15.30;7.80;;;-2.30;99.90;;;;;;5049379;28;20291;-49
2023/03/01 02:10:10;;;;;;;13.52;7.25;;;-2.40;99.90;;;;;;5049392;28;20123;-48
2023/03/01 02:12:37;;;;;;;13.70;7.38;;;-2.40;99.90;;;;;;5048814;28;20477;-48
2023/03/01 02:15:04;;;;;;;15.02;8.70;;;-2.40;99.90;;;;;;5046925;28;20024;-47
2023/03/01 02:17:30;;;;;;;15.63;8.38;;;-2.40;99.90;;;;;;5048926;28;20017;-48
2023/03/01 02:20:24;;;;;;;13.32;6.95;;;-2.40;99.90;;;;;;5049083;28;20074;-50
2023/03/01 02:22:50;;;;;;;11.75;7.00;;;-2.50;99.90;;;;;;5048766;28;20031;-47
2023/03/01 02:25:18;;;;;;;11.38;7.03;;;-2.50;99.90;;;;;;5047265;28;20360;-47
2023/03/01 02:27:52;;;;;;;14.73;7.00;;;-2.50;99.90;;;;;;5047678;28;20020;-50
2023/03/01 02:30:22;;;;;;;19.88;8.32;;;-2.50;99.90;;;;;;5048725;28;20021;-47
2023/03/01 02:32:49;;;;;;;19.17;7.88;;;-2.60;99.90;;;;;;5048237;28;20435;-48
2023/03/01 02:35:17;;;;;;;15.02;7.72;;;-2.50;99.90;;;;;;5048529;28;20104;-49
2023/03/01 02:37:43;;;;;;;17.27;7.88;;;-2.60;99.90;;;;;;5049151;28;20035;-47
2023/03/01 02:40:17;;;;;;;16.05;7.65;;;-2.60;99.90;;;;;;5048882;28;20093;-46
2023/03/01 02:42:58;;;;;;;17.15;8.77;;;-2.60;99.90;;;;;;5048797;28;20016;-47
2023/03/01 02:45:24;;;;;;;16.20;8.32;;;-2.60;99.90;;;;;;5049130;28;20565;-47
2023/03/01 02:47:53;;;;;;;18.77;8.80;;;-2.60;99.90;;;;;;5049361;28;20043;-46
2023/03/01 02:50:30;;;;;;;14.90;8.63;;;-2.70;99.90;;;;;;5047313;28;20056;-46
2023/03/01 02:53:31;;;;;;;18.08;9.50;;;-2.60;99.90;;;;;;5048001;28;20029;-47
2023/03/01 02:55:56;;;;;;;;;;;-2.70;99.90;;;;;;5028943;28;20124;-47
2023/03/01 02:58:22;;;;;;;18.42;9.07;;;-2.70;99.90;;;;;;5047605;28;19996;-47
2023/03/01 03:00:49;;;;;;;20.13;10.23;;;-2.70;99.90;;;;;;5048661;28;20024;-47
2023/03/01 03:03:16;;;;;;;20.13;9.35;;;-2.70;99.90;;;;;;5047846;28;20256;-48
2023/03/01 03:05:42;;;;;;;20.65;11.35;;;-2.60;99.90;;;;;;5048574;28;20674;-47
2023/03/01 03:08:08;;;;;;;19.15;10.38;;;-2.60;99.90;;;;;;5048394;28;20033;-49
2023/03/01 03:10:37;;;;;;;20.58;9.98;;;-2.60;99.90;;;;;;5048613;28;20150;-48
2023/03/01 03:13:09;;;;;;;17.83;9.73;;;-2.60;99.90;;;;;;5047845;28;20032;-46
2023/03/01 03:15:35;;;;;;;19.80;8.55;;;-2.70;99.90;;;;;;5041123;28;20088;-46
2023/03/01 03:18:03;;;;;;;18.27;9.95;;;-2.60;99.90;;;;;;5048576;28;20027;-50
2023/03/01 03:20:29;;;;;;;15.18;8.10;;;-2.60;99.90;;;;;;5048500;28;20039;-48
2023/03/01 03:22:58;;;;;;;18.45;8.90;;;-2.60;99.90;;;;;;5048616;28;20025;-50
2023/03/01 03:25:25;;;;;;;20.48;10.15;;;-2.60;99.90;;;;;;5048429;28;20049;-47
2023/03/01 03:27:56;;;;;;;15.00;8.25;;;-2.60;99.90;;;;;;5047440;28;20492;-47
2023/03/01 03:30:23;;;;;;;16.45;9.07;;;-2.70;99.90;;;;;;5048272;28;20029;-47
2023/03/01 03:32:52;;;;;;;18.23;8.93;;;-2.80;99.90;;;;;;5048615;28;20192;-47
2023/03/01 03:35:24;;;;;;;18.63;8.77;;;-2.90;99.90;;;;;;5046778;28;20074;-47
2023/03/01 03:38:03;;;;;;;16.17;9.13;;;-2.90;99.90;;;;;;5047522;28;20106;-51
2023/03/01 03:40:35;;;;;;;19.98;9.00;;;-2.80;99.90;;;;;;5052251;28;20079;-48
2023/03/01 03:43:02;;;;;;;16.95;9.40;;;-3.00;99.90;;;;;;5051601;28;20025;-48
2023/03/01 03:45:27;;;;;;;20.25;9.60;;;-3.10;99.90;;;;;;5051730;28;20057;-50
2023/03/01 03:47:53;;;;;;;17.63;9.38;;;-3.20;99.90;;;;;;5052118;28;20060;-48
2023/03/01 03:50:18;;;;;;;17.48;8.45;;;-3.20;99.90;;;;;;5051827;28;20033;-48
2023/03/01 03:52:44;;;;;;;19.05;8.95;;;-3.10;99.90;;;;;;5051288;28;20036;-48
2023/03/01 03:55:12;;;;;;;20.17;9.07;;;-3.10;99.90;;;;;;5051703;28;20516;-50
2023/03/01 03:57:38;;;;;;;18.52;9.52;;;-3.00;99.90;;;;;;5052040;28;20646;-47
2023/03/01 04:00:12;;;;;;;21.90;9.82;;;-3.00;99.90;;;;;;5049999;28;20049;-50
2023/03/01 04:02:44;;;;;;;16.38;9.20;;;-3.00;99.90;;;;;;5050506;28;20546;-47
2023/03/01 04:05:12;;;;;;;18.00;8.98;;;-3.10;99.90;;;;;;5049982;28;20025;-48
2023/03/01 04:07:38;;;;;;;21.67;9.85;;;-3.00;99.90;;;;;;5051955;28;20398;-49
2023/03/01 04:10:06;;;;;;;17.90;9.15;;;-3.00;99.90;;;;;;5051541;28;20071;-50
2023/03/01 04:12:33;;;;;;;17.15;8.75;;;-3.00;99.90;;;;;;5051146;28;20044;-48
2023/03/01 04:15:00;;;;;;;19.95;10.35;;;-2.90;99.90;;;;;;5051080;28;20028;-47
2023/03/01 04:17:25;;;;;;;18.20;10.32;;;-2.90;99.90;;;;;;5050126;28;20043;-47
2023/03/01 04:19:51;;;;;;;18.33;11.25;;;-2.90;99.90;;;;;;5050973;28;20025;-49
2023/03/01 04:22:18;;;;;;;20.38;10.00;;;-2.90;99.90;;;;;;5050083;28;20021;-49
2023/03/01 04:24:44;;;;;;;17.40;9.32;;;-2.90;99.90;;;;;;5050745;28;20048;-47
2023/03/01 04:27:09;;;;;;;19.02;10.07;;;-2.90;99.90;;;;;;5050390;28;20167;-47
2023/03/01 04:29:35;;;;;;;16.67;8.57;;;-3.00;99.90;;;;;;5051102;28;20032;-47
2023/03/01 04:32:01;;;;;;;20.73;9.35;;;-3.00;99.90;;;;;;5050945;28;20036;-49
2023/03/01 04:34:26;;;;;;;19.52;9.80;;;-3.10;99.90;;;;;;5050695;28;20111;-47
2023/03/01 04:36:52;;;;;;;15.23;8.32;;;-3.10;99.90;;;;;;5051168;28;20032;-48
2023/03/01 04:39:18;;;;;;;15.68;8.55;;;-3.10;99.90;;;;;;5050977;28;20033;-47
2023/03/01 04:41:43;;;;;;;16.73;8.82;;;-3.10;99.90;;;;;;5050485;28;20028;-47
2023/03/01 04:44:09;;;;;;;17.13;8.55;;;-3.10;99.90;;;;;;5050514;28;20017;-48
2023/03/01 04:46:35;;;;;;;14.70;7.70;;;-3.10;99.90;;;;;;5050898;28;20040;-49
2023/03/01 04:49:02;;;;;;;18.63;8.32;;;-3.10;99.90;;;;;;5050080;28;20036;-48
2023/03/01 04:51:28;;;;;;;17.27;9.05;;;-3.10;99.90;;;;;;5050206;28;20390;-47
2023/03/01 04:53:54;;;;;;;17.92;9.27;;;-3.10;99.90;;;;;;5056856;28;20032;-47
2023/03/01 04:56:20;;;;;;;14.27;9.05;;;-3.10;99.90;;;;;;5070573;28;20029;-47
2023/03/01 04:58:46;;;;;;;14.88;8.13;;;-3.10;99.90;;;;;;5070507;28;20063;-48
2023/03/01 05:01:16;;;;;;;18.90;8.75;;;-3.10;99.90;;;;;;5069210;28;20409;-49
2023/03/01 05:03:42;;;;;;;;;;;-3.10;99.90;;;;;;5070386;28;20028;-48
2023/03/01 05:06:08;;;;;;;17.40;8.52;;;-3.10;99.90;;;;;;5069643;28;20058;-50
2023/03/01 05:08:36;;;;;;;19.35;8.93;;;-3.10;99.90;;;;;;5070678;28;20517;-46
2023/03/01 05:11:02;;;;;;;16.23;8.45;;;-3.10;99.90;;;;;;5070736;28;20021;-47
2023/03/01 05:13:29;;;;;;;15.68;8.93;;;-3.10;99.90;;;;;;5069789;28;20043;-49
2023/03/01 05:15:57;;;;;;;15.95;8.25;;;-3.10;99.90;;;;;;5070708;28;20104;-48
2023/03/01 05:18:27;;;;;;;18.38;9.27;;;-3.20;99.90;;;;;;5070307;28;20315;-49
2023/03/01 05:21:01;;;;;;;14.27;8.07;;;-3.20;99.90;;;;;;5070470;28;20055;-47
2023/03/01 05:23:26;;;;;;;20.25;8.60;;;-3.20;99.90;;;;;;5053110;28;20358;-46
2023/03/01 05:25:52;;;;;;;15.65;9.77;;;-3.30;99.90;;;;;;5050198;28;20481;-47
2023/03/01 05:28:20;;;;;;;19.77;9.48;;;-3.30;99.90;;;;;;5049331;28;20174;-48
2023/03/01 05:30:46;;;;;;;17.58;8.95;;;-3.40;99.90;;;;;;5049917;28;20021;-50
2023/03/01 05:33:15;;;;;;;16.45;9.18;;;-3.40;99.90;;;;;;5049442;28;20017;-49
2023/03/01 05:35:44;;;;;;;18.48;9.70;;;-3.40;99.90;;;;;;5049837;28;20025;-50
2023/03/01 05:38:14;;;;;;;26.02;11.50;;;-3.40;99.90;;;;;;5048568;28;20031;-50
2023/03/01 05:40:44;;;;;;;22.77;10.38;;;-3.30;99.90;;;;;;5049125;28;20025;-48
2023/03/01 05:43:12;;;;;;;21.73;10.43;;;-3.30;99.90;;;;;;5049016;28;20325;-50
2023/03/01 05:45:38;;;;;;;18.83;9.27;;;-3.30;99.90;;;;;;5049684;28;20029;-50
2023/03/01 05:48:05;;;;;;;16.42;9.77;;;-3.30;99.90;;;;;;5049352;28;20032;-48
2023/03/01 05:50:34;;;;;;;21.67;9.80;;;-3.30;99.90;;;;;;5048789;28;20482;-48
2023/03/01 05:53:15;;;;;;;19.30;9.20;;;-3.30;99.90;;;;;;5065233;28;20039;-47
2023/03/01 05:55:42;;;;;;;18.17;9.73;;;-3.30;99.90;;;;;;5054529;28;20373;-50
2023/03/01 05:58:14;;;;;;;18.40;9.07;;;-3.30;99.90;;;;;;5049430;28;20045;-49
2023/03/01 06:00:40;;;;;;;18.42;8.88;;;-3.40;99.90;;;;;;5048575;28;20072;-49
2023/03/01 06:03:06;;;;;;;21.75;10.35;;;-3.40;99.90;;;;;;5048937;28;20025;-49
2023/03/01 06:05:32;;;;;;;18.27;9.15;;;-3.40;99.90;;;;;;5049305;28;20080;-49
2023/03/01 06:08:01;;;;;;;18.48;8.82;;;-3.40;99.90;;;;;;5048900;28;20082;-48
2023/03/01 06:10:27;;;;;;;16.30;8.75;;;-3.40;99.90;;;;;;5049091;28;20474;-53
2023/03/01 06:12:53;;;;;;;18.77;9.93;;;-3.40;99.90;;;;;;5049006;28;20036;-48
2023/03/01 06:15:19;;;;;;;17.52;10.18;;;-3.40;99.90;;;;;;5048831;28;20479;-49
2023/03/01 06:17:46;;;;;;;14.88;8.55;;;-3.40;99.90;;;;;;5049031;28;20025;-48
2023/03/01 06:20:17;;;;;;;19.27;9.52;;;-3.50;99.90;;;;;;5048761;28;20082;-48
2023/03/01 06:22:44;;;;;;;16.67;9.52;;;-3.40;99.90;;;;;;5048933;28;20025;-48
2023/03/01 06:25:12;;;;;;;26.88;10.63;;;-3.40;99.90;;;;;;5048016;28;20382;-49
2023/03/01 06:27:38;;;;;;;20.92;9.80;;;-3.40;99.90;;;;;;5048923;28;20466;-48
2023/03/01 06:30:04;;;;;;;17.40;9.30;;;-3.30;99.90;;;;;;5048772;28;20112;-51
2023/03/01 06:32:30;;;;;;;17.38;9.10;;;-3.30;99.90;;;;;;5048253;28;20096;-49
2023/03/01 06:34:56;;;;;;;20.42;9.52;;;-3.30;99.90;;;;;;5046786;28;20029;-49
2023/03/01 06:37:21;;;;;;;19.50;10.52;;;-3.30;99.90;;;;;;5048732;28;20025;-48
2023/03/01 06:39:47;;;;;;;20.75;9.50;;;-3.30;99.90;;;;;;5048216;28;20051;-49
2023/03/01 06:42:12;;;;;;;19.85;10.85;;;-3.30;99.90;;;;;;5048770;28;20021;-48
2023/03/01 06:44:38;;;;;;;21.83;10.32;;;-3.20;99.90;;;;;;5048748;28;20025;-49
2023/03/01 06:47:04;;;;;;;19.10;9.90;;;-3.20;99.90;;;;;;5048958;28;20029;-48
2023/03/01 06:49:30;;;;;;;21.85;10.52;;;-3.20;99.90;;;;;;5047432;28;20033;-49
2023/03/01 06:51:55;;;;;;;18.25;10.55;;;-3.10;99.90;;;;;;5048524;28;20025;-48
2023/03/01 06:54:22;;;;;;;21.25;10.60;;;-3.10;99.90;;;;;;5046739;28;20402;-48
2023/03/01 06:56:48;;;;;;;23.48;12.00;;;-3.00;99.90;;;;;;5048454;28;20025;-50
2023/03/01 06:59:15;;;;;;;22.98;11.80;;;-2.90;99.90;;;;;;5047629;28;20448;-48
2023/03/01 07:01:40;;;;;;;21.27;11.85;;;-2.90;99.90;;;;;;5047253;28;20036;-50
2023/03/01 07:04:06;;;;;;;21.10;11.20;;;-2.80;99.90;;;;;;5047240;28;20029;-49
2023/03/01 07:06:31;;;;;;;24.02;11.57;;;-2.70;99.90;;;;;;5048270;28;20033;-48
2023/03/01 07:08:57;;;;;;;22.70;11.18;;;-2.70;99.90;;;;;;5048129;28;20021;-50
2023/03/01 07:11:23;;;;;;;20.58;11.30;;;-2.70;99.90;;;;;;5049800;28;20043;-51
2023/03/01 07:13:48;;;;;;;25.45;11.98;;;-2.60;99.90;;;;;;5051269;28;20059;-49
2023/03/01 07:16:14;;;;;;;20.02;12.32;;;-2.60;99.90;;;;;;5052650;28;20052;-51
2023/03/01 07:18:40;;;;;;;30.23;13.32;;;-2.60;99.90;;;;;;5050923;28;20017;-48
2023/03/01 07:21:07;;;;;;;22.70;11.90;;;-2.50;99.90;;;;;;5052423;28;20017;-48
2023/03/01 07:23:33;;;;;;;27.13;12.55;;;-2.50;99.90;;;;;;5052121;28;20034;-50
2023/03/01 07:25:58;;;;;;;23.88;11.88;;;-2.40;99.90;;;;;;5052268;28;20029;-48
2023/03/01 07:28:24;;;;;;;19.67;11.25;;;-2.40;99.90;;;;;;5051988;28;20031;-51
2023/03/01 07:30:50;;;;;;;17.23;10.38;;;-2.30;99.90;;;;;;5052206;28;20115;-50
2023/03/01 07:33:16;;;;;;;24.17;11.35;;;-2.30;99.90;;;;;;5051921;28;20429;-50
2023/03/01 07:35:42;;;;;;;21.52;11.52;;;-2.20;99.90;;;;;;5051026;28;20021;-50
2023/03/01 07:38:07;;;;;;;21.58;10.43;;;-2.10;99.90;;;;;;5052644;28;20028;-48
2023/03/01 07:40:33;;;;;;;21.92;11.18;;;-2.10;99.90;;;;;;5050976;28;20020;-49
2023/03/01 07:42:59;;;;;;;19.80;10.10;;;-2.00;99.90;;;;;;5051588;28;20028;-49
2023/03/01 07:45:25;;;;;;;20.80;10.10;;;-1.90;99.90;;;;;;5052023;28;20517;-49
2023/03/01 07:47:55;;;;;;;17.58;9.93;;;-1.80;99.90;;;;;;5051963;28;20464;-48
2023/03/01 07:50:21;;;;;;;19.77;9.90;;;-1.80;99.90;;;;;;5050462;28;20028;-48
2023/03/01 07:52:49;;;;;;;16.08;9.30;;;-1.70;99.90;;;;;;5051664;28;20336;-48
2023/03/01 07:55:15;;;;;;;18.90;9.90;;;-1.60;99.90;;;;;;5051270;28;20117;-48
2023/03/01 07:57:41;;;;;;;19.45;9.80;;;-1.50;99.90;;;;;;5051768;28;20141;-48
2023/03/01 08:00:09;;;;;;;19.38;8.50;;;-1.50;99.90;;;;;;5050297;28;20125;-48
2023/03/01 08:02:35;;;;;;;20.95;9.68;;;-1.40;99.90;;;;;;5051424;28;20386;-48
2023/03/01 08:05:00;;;;;;;13.70;8.23;;;-1.30;99.90;;;;;;5051526;28;20021;-49
2023/03/01 08:07:26;;;;;;;18.25;9.15;;;-1.20;99.90;;;;;;5051732;28;20021;-48
2023/03/01 08:09:51;;;;;;;15.68;8.88;;;-1.20;99.90;;;;;;5051373;28;20036;-49
2023/03/01 08:12:17;;;;;;;15.85;9.40;;;-1.10;99.90;;;;;;5051750;28;20397;-49
2023/03/01 08:14:43;;;;;;;15.55;8.75;;;-1.00;99.90;;;;;;5051307;28;20029;-50
2023/03/01 08:17:08;;;;;;;14.82;8.85;;;-0.80;99.90;;;;;;5050916;28;20028;-50
2023/03/01 08:19:34;;;;;;;15.35;9.13;;;-0.70;99.90;;;;;;5049959;28;20033;-50
2023/03/01 08:22:01;;;;;;;17.20;8.82;;;-0.60;99.90;;;;;;5050384;28;20031;-52
2023/03/01 08:24:27;;;;;;;16.55;9.15;;;-0.50;99.90;;;;;;5049786;28;20067;-52
2023/03/01 08:26:53;;;;;;;15.65;8.73;;;-0.40;99.90;;;;;;5050911;28;20252;-49
2023/03/01 08:29:18;;;;;;;14.82;8.43;;;-0.40;99.90;;;;;;5051060;28;20021;-50
2023/03/01 08:31:44;;;;;;;15.32;8.70;;;-0.30;99.90;;;;;;5051178;28;20116;-52
2023/03/01 08:34:12;;;;;;;14.55;8.32;;;-0.20;99.90;;;;;;5050963;28;20391;-48
2023/03/01 08:36:40;;;;;;;12.70;7.85;;;-0.10;99.90;;;;;;5051163;28;20025;-49
2023/03/01 08:39:07;;;;;;;13.00;8.02;;;0.00;99.90;;;;;;5049610;28;20039;-50
2023/03/01 08:41:33;;;;;;;17.65;9.00;;;0.20;99.90;;;;;;5051179;28;20032;-48
2023/03/01 08:43:59;;;;;;;14.57;9.07;;;0.30;99.90;;;;;;5050578;28;20552;-51
2023/03/01 08:46:26;;;;;;;15.00;8.32;;;0.40;99.90;;;;;;5051073;28;20076;-49
2023/03/01 08:48:52;;;;;;;15.07;7.97;;;0.50;99.90;;;;;;5050199;28;20021;-49
2023/03/01 08:51:19;;;;;;;13.63;7.50;;;0.60;99.90;;;;;;5050739;28;20482;-48
2023/03/01 08:53:45;;;;;;;14.65;7.53;;;0.80;99.90;;;;;;5050214;28;20037;-48
2023/03/01 08:56:11;;;;;;;12.82;7.30;;;1.00;99.90;;;;;;5050612;28;20097;-49
2023/03/01 08:58:37;;;;;;;13.98;6.93;;;1.20;99.90;;;;;;5050804;28;20518;-51
2023/03/01 09:01:10;;;;;;;13.00;7.07;;;1.40;99.90;;;;;;5050560;28;20060;-49
2023/03/01 09:03:36;;;;;;;13.93;7.88;;;1.60;99.90;;;;;;5050176;28;20029;-49
2023/03/01 09:06:03;;;;;;;17.00;8.27;;;1.70;99.90;;;;;;5050537;28;20557;-48
2023/03/01 09:08:28;;;;;;;13.48;7.30;;;1.90;99.90;;;;;;5050727;28;20048;-49
2023/03/01 09:10:54;;;;;;;11.52;6.47;;;2.10;99.90;;;;;;5048965;28;20025;-48
2023/03/01 09:13:19;;;;;;;11.98;6.15;;;2.30;99.90;;;;;;5049869;28;20029;-49
2023/03/01 09:15:45;;;;;;;11.63;6.28;;;2.90;99.90;;;;;;5050381;28;20079;-50
2023/03/01 09:18:10;;;;;;;12.88;6.07;;;4.40;99.90;;;;;;5050135;28;20041;-47
2023/03/01 09:20:36;;;;;;;6.68;4.90;;;6.70;99.70;;;;;;5050221;28;20500;-48
2023/03/01 09:23:02;;;;;;;7.05;4.72;;;9.00;94.20;;;;;;5049229;28;20032;-48
2023/03/01 09:25:28;;;;;;;7.45;4.85;;;11.30;87.10;;;;;;5049584;28;20028;-47
2023/03/01 09:27:54;;;;;;;6.63;4.70;;;13.30;76.90;;;;;;5050156;28;20533;-47
2023/03/01 09:30:20;;;;;;;9.38;5.55;;;14.90;65.50;;;;;;5048539;28;20021;-48
2023/03/01 09:32:46;;;;;;;8.27;4.00;;;16.10;59.80;;;;;;5049746;28;20063;-48
2023/03/01 09:35:12;;;;;;;7.03;4.68;;;17.20;57.90;;;;;;5048813;28;20552;-49
2023/03/01 09:37:39;;;;;;;5.80;3.83;;;18.10;52.50;;;;;;5050102;28;20071;-48
2023/03/01 09:40:07;;;;;;;7.72;3.92;;;18.00;51.30;;;;;;5049119;28;20403;-49
2023/03/01 09:42:35;;;;;;;7.50;4.40;;;19.10;48.90;;;;;;5048270;28;20082;-49
2023/03/01 09:45:11;;;;;;;7.40;4.35;;;19.10;49.00;;;;;;5049992;28;20017;-47
2023/03/01 09:47:36;;;;;;;7.70;4.97;;;19.20;48.50;;;;;;5049623;28;20525;-50
2023/03/01 09:50:02;;;;;;;8.93;4.07;;;19.40;48.00;;;;;;5049861;28;20029;-48
2023/03/01 09:52:42;;;;;;;6.50;4.32;;;19.90;46.20;;;;;;5049872;28;20111;-48
2023/03/01 09:55:12;;;;;;;7.47;4.57;;;19.90;46.90;;;;;;5048077;28;20073;-51
2023/03/01 09:57:47;;;;;;;4.78;3.70;;;20.40;44.50;;;;;;5049507;28;20108;-51
2023/03/01 10:00:30;;;;;;;4.70;3.90;;;20.80;44.90;;;;;;5049551;28;20036;-49
2023/03/01 10:03:09;;;;;;;6.38;4.50;;;21.20;44.60;;;;;;5049368;28;20513;-49
2023/03/01 10:05:47;;;;;;;7.73;3.93;;;21.50;42.60;;;;;;5048368;28;20028;-49
2023/03/01 10:08:50;;;;;;;6.15;3.90;;;21.80;42.30;;;;;;5048240;28;20470;-49
2023/03/01 10:11:25;;;;;;;7.78;4.10;;;22.00;41.60;;;;;;5048494;28;20044;-50
2023/03/01 10:14:03;;;;;;;6.25;3.80;;;21.40;42.00;;;;;;5048646;28;20033;-52
2023/03/01 10:16:53;;;;;;;4.43;3.15;;;21.80;43.30;;;;;;5048580;28;20021;-50
2023/03/01 10:19:32;;;;;;;6.03;3.50;;;21.90;41.90;;;;;;5033188;28;20040;-51
2023/03/01 10:22:13;;;;;;;6.13;4.43;;;22.10;41.40;;;;;;5048428;28;20506;-51
2023/03/01 10:24:39;;;;;;;6.28;3.95;;;21.30;41.90;;;;;;5048737;28;20032;-49
2023/03/01 10:27:11;;;;;;;4.07;3.53;;;21.50;42.30;;;;;;5048949;28;20478;-49
2023/03/01 10:29:50;;;;;;;5.00;3.92;;;22.10;39.50;;;;;;5048428;28;20074;-51
2023/03/01 10:32:17;;;;;;;5.40;3.75;;;22.20;40.30;;;;;;5048540;28;20024;-50
2023/03/01 10:34:43;;;;;;;5.47;3.70;;;22.30;40.60;;;;;;5047974;28;20021;-52
2023/03/01 10:37:10;;;;;;;6.07;4.75;;;22.50;39.50;;;;;;5048947;28;20089;-51
2023/03/01 10:39:36;;;;;;;6.60;4.65;;;22.30;39.20;;;;;;5049033;28;20025;-43
2023/03/01 10:42:05;;;;;;;5.80;4.20;;;22.80;39.60;;;;;;5048752;28;20036;-43
2023/03/01 10:44:58;;;;;;;6.32;4.07;;;22.90;39.80;;;;;;5047131;28;20036;-44
2023/03/01 10:47:26;;;;;;;4.20;3.60;;;22.80;39.40;;;;;;5043403;28;20037;-47
2023/03/01 10:50:00;;;;;;;6.63;4.05;;;23.30;37.60;;;;;;5048754;28;20383;-43
2023/03/01 10:52:39;;;;;;;5.03;3.75;;;22.80;38.20;;;;;;5048641;28;20110;-46
2023/03/01 10:55:40;;;;;;;5.00;4.07;;;21.90;38.10;;;;;;5046090;28;20031;-47
2023/03/01 10:58:19;;;;;;;4.70;3.67;;;21.70;39.60;;;;;;5048729;28;20086;-44
2023/03/01 11:00:53;;;;;;;5.10;3.67;;;21.90;39.20;;;;;;5049051;28;20104;-44
2023/03/01 11:03:26;;;;;;;5.80;3.50;;;22.60;38.20;;;;;;5047015;28;20029;-45
2023/03/01 11:06:11;;;;;;;6.47;3.65;;;22.70;37.80;;;;;;5048670;28;20367;-44
2023/03/01 11:08:48;;;;;;;6.25;4.03;;;22.80;38.90;;;;;;5048789;28;20037;-43
2023/03/01 11:11:31;;;;;;;3.58;3.10;;;22.30;37.40;;;;;;5048479;28;20026;-43
2023/03/01 11:14:15;;;;;;;4.55;3.35;;;22.70;38.50;;;;;;5047563;28;20048;-43
2023/03/01 11:16:43;;;;;;;5.40;3.10;;;22.70;36.90;;;;;;5048177;28;20021;-44
2023/03/01 11:19:08;;;;;;;6.00;3.20;;;22.60;37.00;;;;;;5048647;28;20025;-42
2023/03/01 11:21:55;;;;;;;5.68;3.75;;;23.10;36.30;;;;;;5047094;28;20036;-43
2023/03/01 11:24:28;;;;;;;6.32;3.33;;;23.10;37.20;;;;;;5046267;28;20053;-44
2023/03/01 11:26:55;;;;;;;5.45;3.65;;;22.60;38.00;;;;;;5048691;28;20439;-43
2023/03/01 11:29:38;;;;;;;5.57;3.35;;;23.00;35.70;;;;;;5049179;28;20083;-45
2023/03/01 11:32:08;;;;;;;4.78;3.50;;;22.50;36.50;;;;;;5046626;28;20029;-44
2023/03/01 11:34:54;;;;;;;5.45;3.83;;;22.80;37.50;;;;;;5048101;28;20037;-42
2023/03/01 11:37:42;;;;;;;5.25;3.70;;;22.60;35.60;;;;;;5032815;28;20029;-42
2023/03/01 11:40:14;;;;;;;5.25;3.53;;;21.90;38.10;;;;;;5045998;28;20453;-46
2023/03/01 11:42:51;;;;;;;6.68;3.97;;;22.30;37.30;;;;;;5048386;28;20025;-43
2023/03/01 11:45:19;;;;;;;5.50;3.47;;;21.40;38.30;;;;;;5048448;28;20116;-44
2023/03/01 11:47:50;;;;;;;6.75;4.43;;;21.40;39.00;;;;;;5047992;28;20029;-42
2023/03/01 11:50:18;;;;;;;4.72;3.97;;;21.70;40.20;;;;;;5044215;28;20110;-41
2023/03/01 11:53:00;;;;;;;5.90;4.38;;;21.50;39.00;;;;;;5042875;28;20017;-41
2023/03/01 11:55:46;;;;;;;5.90;4.13;;;21.30;39.00;;;;;;5039072;28;20037;-42
2023/03/01 11:58:21;;;;;;;4.45;3.35;;;21.40;37.90;;;;;;5047799;28;20025;-42
2023/03/01 12:01:01;;;;;;;5.07;3.80;;;20.90;39.60;;;;;;5051206;28;20028;-41
2023/03/01 12:03:29;;;;;;;6.40;3.97;;;21.00;38.60;;;;;;5051707;28;20053;-42
2023/03/01 12:06:17;;;;;;;6.85;3.78;;;21.10;37.70;;;;;;5051956;28;20037;-41
2023/03/01 12:09:20;;;;;;;4.70;3.05;;;21.10;39.50;;;;;;5051895;28;20032;-44
2023/03/01 12:12:19;;;;;;;4.93;3.80;;;20.20;39.30;;;;;;5017518;28;20047;-42
2023/03/01 12:15:02;;;;;;;5.50;4.28;;;20.40;40.20;;;;;;5051226;28;20025;-41
2023/03/01 12:17:57;;;;;;;5.53;3.97;;;19.80;40.70;;;;;;5051499;28;20118;-42
2023/03/01 12:20:32;;;;;;;4.63;3.58;;;19.70;40.40;;;;;;5050688;28;20491;-42
2023/03/01 12:23:25;;;;;;;4.97;3.60;;;20.20;39.70;;;;;;5049757;28;20017;-43
2023/03/01 12:26:28;;;;;;;4.53;3.28;;;20.30;41.00;;;;;;5049494;28;20021;-43
2023/03/01 12:29:13;;;;;;;5.47;3.50;;;20.10;38.90;;;;;;5071805;28;20023;-42
2023/03/01 12:31:50;;;;;;;4.97;3.08;;;20.10;39.70;;;;;;5071161;28;20012;-42
2023/03/01 12:34:51;;;;;;;4.82;3.47;;;19.10;40.40;;;;;;5069759;28;20089;-44
2023/03/01 12:37:29;;;;;;;4.63;3.90;;;18.70;42.90;;;;;;5050865;28;20089;-42
2023/03/01 12:40:32;;;;;;;4.18;3.55;;;18.20;41.90;;;;;;5050954;28;20032;-41
2023/03/01 12:43:07;;;;;;;6.45;3.85;;;17.60;44.40;;;;;;5051104;28;20660;-41
2023/03/01 12:45:47;;;;;;;4.68;3.72;;;17.60;42.50;;;;;;5050671;28;20025;-41
2023/03/01 12:48:36;;;;;;;5.22;3.92;;;17.50;43.20;;;;;;5050936;28;20028;-41
2023/03/01 12:51:10;;;;;;;5.68;4.25;;;16.90;43.20;;;;;;5051117;28;20566;-42
2023/03/01 12:53:40;;;;;;;6.78;4.00;;;16.70;43.80;;;;;;5050340;28;20405;-41
2023/03/01 12:56:15;;;;;;;5.20;3.60;;;16.40;46.20;;;;;;5051268;28;20025;-41